createdAt,value
2022-08-17T00:00:43.261Z,26.30
2022-08-17T00:03:14.509Z,26.20
2022-08-17T00:05:46.423Z,26.10
2022-08-17T00:08:16.112Z,26.10
2022-08-17T00:10:47.872Z,26.20
2022-08-17T00:13:19.142Z,26.10
2022-08-17T00:15:47.843Z,26.10
2022-08-17T00:19:06.183Z,26.10
2022-08-17T00:21:10.224Z,26.00
2022-08-17T00:23:47.867Z,26.00
2022-08-17T00:26:34.573Z,26.00
2022-08-17T00:29:09.264Z,26.00
2022-08-17T00:31:37.724Z,26.00
2022-08-17T00:34:06.727Z,26.00
2022-08-17T00:36:34.842Z,26.00
2022-08-17T00:39:03.253Z,25.90
2022-08-17T00:41:33.004Z,25.80
2022-08-17T00:44:04.565Z,25.70
2022-08-17T00:46:36.352Z,25.70
2022-08-17T00:49:06.148Z,25.70
2022-08-17T00:51:38.913Z,25.70
2022-08-17T00:54:11.094Z,25.70
2022-08-17T00:56:44.678Z,25.80
2022-08-17T00:59:17.773Z,25.80
2022-08-17T01:01:48.273Z,25.80
2022-08-17T01:04:18.476Z,25.70
2022-08-17T01:06:48.541Z,25.70
2022-08-17T01:09:18.025Z,25.70
2022-08-17T01:11:52.510Z,25.70
2022-08-17T01:14:21.765Z,25.70
2022-08-17T01:16:51.485Z,25.60
2022-08-17T01:19:23.072Z,25.50
2022-08-17T01:21:55.364Z,25.50
2022-08-17T01:24:25.245Z,25.50
2022-08-17T01:26:53.353Z,25.50
2022-08-17T01:29:26.102Z,25.60
2022-08-17T01:31:58.186Z,25.60
2022-08-17T01:34:35.257Z,25.50
2022-08-17T01:37:12.307Z,25.50
2022-08-17T01:39:44.786Z,25.40
2022-08-17T01:42:21.172Z,25.30
2022-08-17T01:44:50.744Z,25.30
2022-08-17T01:47:18.794Z,25.30
2022-08-17T01:49:47.851Z,25.40
2022-08-17T01:52:17.342Z,25.40
2022-08-17T01:54:48.101Z,25.40
2022-08-17T01:57:16.202Z,25.30
2022-08-17T01:59:44.286Z,25.30
2022-08-17T02:02:12.484Z,25.20
2022-08-17T02:05:07.915Z,25.10
2022-08-17T02:07:59.720Z,25.10
2022-08-17T02:10:34.046Z,25.10
2022-08-17T02:13:03.846Z,25.10
2022-08-17T02:15:32.473Z,25.00
2022-08-17T02:18:00.984Z,25.00
2022-08-17T02:20:42.547Z,25.00
2022-08-17T02:23:21.126Z,25.00
2022-08-17T02:25:51.078Z,25.00
2022-08-17T02:28:20.209Z,25.00
2022-08-17T02:31:01.127Z,24.90
2022-08-17T02:33:41.776Z,25.00
2022-08-17T02:36:13.030Z,24.90
2022-08-17T02:38:41.536Z,24.90
2022-08-17T02:41:13.479Z,24.80
2022-08-17T02:43:42.245Z,24.80
2022-08-17T02:46:11.473Z,24.80
2022-08-17T02:48:40.448Z,24.80
2022-08-17T02:51:09.627Z,24.70
2022-08-17T02:53:38.004Z,24.60
2022-08-17T02:56:06.688Z,24.60
2022-08-17T02:58:36.697Z,24.60
2022-08-17T03:01:06.616Z,24.60
2022-08-17T03:03:35.667Z,24.60
2022-08-17T03:06:05.055Z,24.60
2022-08-17T03:08:33.426Z,24.60
2022-08-17T03:11:01.626Z,24.60
2022-08-17T03:13:31.171Z,24.60
2022-08-17T03:16:00.907Z,24.50
2022-08-17T03:18:29.207Z,24.50
2022-08-17T03:20:59.806Z,24.50
2022-08-17T03:23:29.684Z,24.50
2022-08-17T03:26:00.299Z,24.50
2022-08-17T03:28:29.179Z,24.50
2022-08-17T03:30:57.366Z,24.50
2022-08-17T03:33:27.437Z,24.50
2022-08-17T03:35:56.367Z,24.40
2022-08-17T03:38:25.127Z,24.50
2022-08-17T03:40:59.108Z,24.50
2022-08-17T03:43:29.946Z,24.40
2022-08-17T03:46:27.090Z,24.40
2022-08-17T03:49:23.935Z,24.40
2022-08-17T03:52:11.801Z,24.40
2022-08-17T03:54:58.834Z,24.30
2022-08-17T03:57:27.257Z,24.30
2022-08-17T03:59:56.260Z,24.30
2022-08-17T04:02:27.376Z,24.30
2022-08-17T04:04:57.538Z,24.20
2022-08-17T04:07:28.637Z,24.20
2022-08-17T04:09:58.405Z,24.20
2022-08-17T04:12:31.313Z,24.30
2022-08-17T04:15:00.212Z,24.30
2022-08-17T04:17:29.568Z,24.40
2022-08-17T04:19:59.395Z,24.40
2022-08-17T04:22:32.622Z,24.30
2022-08-17T04:25:08.406Z,24.30
2022-08-17T04:27:36.988Z,24.30
2022-08-17T04:30:07.588Z,24.30
2022-08-17T04:33:03.712Z,24.30
2022-08-17T04:35:38.802Z,24.40
2022-08-17T04:38:07.897Z,24.50
2022-08-17T04:40:54.623Z,24.50
2022-08-17T04:43:25.335Z,24.50
2022-08-17T04:45:57.157Z,24.40
2022-08-17T04:48:27.881Z,24.30
2022-08-17T04:51:08.060Z,24.30
2022-08-17T04:53:36.508Z,24.30
2022-08-17T04:56:05.568Z,24.30
2022-08-17T04:58:34.339Z,24.30
2022-08-17T05:01:02.685Z,24.30
2022-08-17T05:03:31.369Z,24.30
2022-08-17T05:05:59.672Z,24.40
2022-08-17T05:08:29.538Z,24.40
2022-08-17T05:10:57.818Z,24.40
2022-08-17T05:13:29.619Z,24.30
2022-08-17T05:15:59.328Z,24.30
2022-08-17T05:18:28.348Z,24.30
2022-08-17T05:20:57.523Z,24.30
2022-08-17T05:23:41.842Z,24.40
2022-08-17T05:26:25.652Z,24.40
2022-08-17T05:28:57.117Z,24.40
2022-08-17T05:31:27.750Z,24.30
2022-08-17T05:33:56.159Z,24.40
2022-08-17T05:36:41.742Z,24.40
2022-08-17T05:39:15.701Z,24.40
2022-08-17T05:41:48.045Z,24.50
2022-08-17T05:44:16.898Z,24.60
2022-08-17T05:46:49.448Z,24.60
2022-08-17T05:49:23.448Z,24.60
2022-08-17T05:52:11.619Z,24.70
2022-08-17T05:54:50.969Z,24.70
2022-08-17T05:57:53.121Z,24.80
2022-08-17T06:00:30.140Z,24.90
2022-08-17T06:03:11.881Z,24.90
2022-08-17T06:05:55.149Z,24.90
2022-08-17T06:08:31.909Z,25.00
2022-08-17T06:11:10.017Z,25.00
2022-08-17T06:14:01.423Z,25.00
2022-08-17T06:16:35.848Z,25.10
2022-08-17T06:19:12.347Z,25.20
2022-08-17T06:21:43.212Z,25.10
2022-08-17T06:24:28.540Z,25.10
2022-08-17T06:27:06.761Z,25.20
2022-08-17T06:29:45.130Z,25.30
2022-08-17T06:32:14.712Z,25.30
2022-08-17T06:34:44.307Z,25.40
2022-08-17T06:37:31.352Z,25.40
2022-08-17T06:40:14.945Z,25.50
2022-08-17T06:43:02.205Z,25.50
2022-08-17T06:45:39.875Z,25.50
2022-08-17T06:48:13.370Z,25.60
2022-08-17T06:50:47.410Z,25.70
2022-08-17T06:53:24.791Z,25.70
2022-08-17T06:55:58.852Z,25.80
2022-08-17T06:58:32.429Z,25.80
2022-08-17T07:01:08.761Z,25.80
2022-08-17T07:03:38.906Z,25.90
2022-08-17T07:06:14.590Z,26.00
2022-08-17T07:08:51.389Z,26.00
2022-08-17T07:11:27.717Z,26.00
2022-08-17T07:14:04.274Z,26.00
2022-08-17T07:16:38.953Z,26.00
2022-08-17T07:19:07.804Z,26.10
2022-08-17T07:21:50.155Z,26.20
2022-08-17T07:24:30.737Z,26.30
2022-08-17T07:27:11.799Z,26.30
2022-08-17T07:29:44.200Z,26.40
2022-08-17T07:32:18.665Z,26.50
2022-08-17T07:35:15.889Z,26.60
2022-08-17T07:37:44.450Z,26.60
2022-08-17T07:40:28.862Z,26.70
2022-08-17T07:43:22.290Z,26.80
2022-08-17T07:46:13.702Z,26.80
2022-08-17T07:48:45.121Z,27.00
2022-08-17T07:51:19.459Z,27.10
2022-08-17T07:53:48.006Z,27.10
2022-08-17T07:56:36.418Z,27.20
2022-08-17T07:59:16.770Z,27.30
2022-08-17T08:01:47.716Z,27.50
2022-08-17T08:07:26.684Z,27.60
2022-08-17T08:10:07.150Z,27.70
2022-08-17T08:12:37.938Z,27.80
2022-08-17T08:15:14.219Z,27.80
2022-08-17T08:17:52.193Z,27.80
2022-08-17T08:20:42.428Z,27.90
2022-08-17T08:23:25.646Z,27.90
2022-08-17T08:26:13.137Z,27.90
2022-08-17T08:28:51.472Z,28.00
2022-08-17T08:31:24.622Z,28.20
2022-08-17T08:34:03.938Z,28.40
2022-08-17T08:37:15.715Z,28.50
2022-08-17T08:39:42.476Z,28.50
2022-08-17T08:42:20.873Z,28.70
2022-08-17T08:45:04.772Z,28.80
2022-08-17T08:48:05.709Z,28.80
2022-08-17T08:50:46.348Z,28.80
2022-08-17T08:53:32.372Z,28.90
2022-08-17T08:56:06.569Z,29.10
2022-08-17T08:58:43.922Z,29.20
2022-08-17T09:01:21.637Z,29.30
2022-08-17T09:04:21.776Z,29.30
2022-08-17T09:07:02.553Z,29.30
2022-08-17T09:09:41.373Z,29.30
2022-08-17T09:12:17.120Z,29.50
2022-08-17T09:15:01.694Z,29.50
2022-08-17T09:17:36.926Z,29.60
2022-08-17T09:20:27.323Z,29.70
2022-08-17T09:23:02.983Z,29.80
2022-08-17T09:25:39.751Z,29.80
2022-08-17T09:28:16.738Z,29.80
2022-08-17T09:30:50.026Z,30.00
2022-08-17T09:33:23.139Z,30.10
2022-08-17T09:35:55.914Z,30.20
2022-08-17T09:38:32.762Z,30.20
2022-08-17T09:41:10.101Z,30.20
2022-08-17T09:43:44.022Z,30.20
2022-08-17T09:46:17.344Z,30.20
2022-08-17T09:48:55.455Z,30.20
2022-08-17T09:51:30.605Z,30.30
2022-08-17T09:54:20.910Z,30.40
2022-08-17T09:57:25.754Z,30.60
2022-08-17T09:59:57.227Z,30.60
2022-08-17T10:03:09.825Z,30.60
2022-08-17T10:05:48.678Z,30.40
2022-08-17T10:08:27.856Z,30.50
2022-08-17T10:11:07.280Z,30.70
2022-08-17T10:13:52.763Z,30.70
2022-08-17T10:16:31.002Z,30.70
2022-08-17T10:19:17.821Z,31.00
2022-08-17T10:22:14.956Z,31.40
2022-08-17T10:25:22.262Z,31.90
2022-08-17T10:27:55.784Z,32.20
2022-08-17T10:30:27.264Z,32.00
2022-08-17T10:32:58.636Z,31.80
2022-08-17T10:35:38.285Z,31.90
2022-08-17T10:38:33.559Z,31.90
2022-08-17T10:41:07.453Z,31.80
2022-08-17T10:44:38.282Z,31.90
2022-08-17T10:46:52.923Z,32.10
2022-08-17T10:49:29.922Z,32.30
2022-08-17T10:52:00.171Z,32.20
2022-08-17T10:54:47.523Z,32.20
2022-08-17T10:57:37.575Z,32.10
2022-08-17T11:00:18.631Z,32.40
2022-08-17T11:02:51.350Z,32.60
2022-08-17T11:05:44.241Z,32.50
2022-08-17T11:08:44.450Z,32.70
2022-08-17T11:11:36.720Z,32.80
2022-08-17T11:14:24.054Z,32.90
2022-08-17T11:17:11.586Z,33.30
2022-08-17T11:20:05.427Z,33.60
2022-08-17T11:23:00.011Z,33.80
2022-08-17T11:25:36.464Z,33.50
2022-08-17T11:28:13.957Z,33.30
2022-08-17T11:30:47.123Z,33.10
2022-08-17T11:33:53.866Z,33.00
2022-08-17T11:36:53.890Z,33.00
2022-08-17T11:39:50.573Z,33.20
2022-08-17T11:42:31.737Z,33.10
2022-08-17T11:45:04.048Z,32.80
2022-08-17T11:48:23.558Z,33.00
2022-08-17T11:51:10.914Z,33.20
2022-08-17T11:57:00.669Z,33.60
2022-08-17T11:59:58.535Z,33.40
2022-08-17T12:02:47.825Z,33.50
2022-08-17T12:05:43.615Z,33.60
2022-08-17T12:08:22.620Z,33.70
2022-08-17T12:11:04.942Z,34.00
2022-08-17T12:13:38.669Z,34.10
2022-08-17T12:16:10.207Z,33.70
2022-08-17T12:18:42.165Z,33.30
2022-08-17T12:21:34.478Z,33.50
2022-08-17T12:24:11.182Z,33.70
2022-08-17T12:26:44.114Z,33.60
2022-08-17T12:29:18.228Z,33.80
2022-08-17T12:32:05.911Z,33.60
2022-08-17T12:34:38.507Z,33.60
2022-08-17T12:37:15.348Z,33.50
2022-08-17T12:39:52.787Z,33.30
2022-08-17T12:42:29.481Z,33.00
2022-08-17T12:44:57.725Z,32.90
2022-08-17T12:47:25.815Z,32.80
2022-08-17T12:50:29.891Z,32.80
2022-08-17T12:53:01.099Z,32.80
2022-08-17T12:55:35.627Z,32.90
2022-08-17T12:58:05.202Z,32.90
2022-08-17T13:00:34.905Z,32.90
2022-08-17T13:03:06.249Z,32.90
2022-08-17T13:05:38.389Z,33.00
2022-08-17T13:08:16.927Z,32.90
2022-08-17T13:10:53.642Z,32.70
2022-08-17T13:13:25.020Z,32.70
2022-08-17T13:15:55.209Z,32.70
2022-08-17T13:18:40.548Z,32.70
2022-08-17T13:21:18.288Z,32.70
2022-08-17T13:23:56.627Z,32.90
2022-08-17T13:26:30.327Z,33.00
2022-08-17T13:29:00.489Z,33.20
2022-08-17T13:31:44.027Z,33.40
2022-08-17T13:34:33.757Z,33.40
2022-08-17T13:37:30.533Z,33.30
2022-08-17T13:40:01.838Z,33.40
2022-08-17T13:42:31.695Z,33.40
2022-08-17T13:45:01.350Z,33.50
2022-08-17T13:47:49.336Z,33.70
2022-08-17T13:50:21.499Z,34.20
2022-08-17T13:52:52.084Z,34.60
2022-08-17T13:55:23.028Z,35.10
2022-08-17T13:58:06.536Z,35.30
2022-08-17T14:00:37.669Z,35.50
2022-08-17T14:03:06.446Z,35.50
2022-08-17T14:05:38.078Z,35.50
2022-08-17T14:08:07.207Z,35.60
2022-08-17T14:10:36.727Z,35.70
2022-08-17T14:13:04.935Z,35.60
2022-08-17T14:15:55.039Z,35.40
2022-08-17T14:18:52.043Z,35.50
2022-08-17T14:21:12.183Z,35.60
2022-08-17T14:23:41.312Z,35.70
2022-08-17T14:26:17.284Z,35.60
2022-08-17T14:28:54.386Z,35.80
2022-08-17T14:31:22.981Z,35.80
2022-08-17T14:33:52.976Z,36.30
2022-08-17T14:36:21.332Z,36.10
2022-08-17T14:38:49.372Z,36.70
2022-08-17T14:41:22.071Z,36.80
2022-08-17T14:43:51.034Z,36.70
2022-08-17T14:46:19.345Z,37.10
2022-08-17T14:48:47.682Z,37.50
2022-08-17T14:51:17.442Z,37.80
2022-08-17T14:53:46.254Z,38.00
2022-08-17T14:56:14.563Z,38.20
2022-08-17T14:58:42.775Z,37.90
2022-08-17T15:01:12.010Z,37.60
2022-08-17T15:03:41.273Z,37.70
2022-08-17T15:06:14.913Z,38.00
2022-08-17T15:08:46.434Z,38.20
2022-08-17T15:11:15.005Z,38.70
2022-08-17T15:13:52.797Z,38.40
2022-08-17T15:16:21.736Z,38.20
2022-08-17T15:18:50.414Z,37.50
2022-08-17T15:21:19.011Z,36.90
2022-08-17T15:23:48.541Z,36.30
2022-08-17T15:26:18.521Z,35.90
2022-08-17T15:28:54.269Z,35.50
2022-08-17T15:31:32.139Z,35.20
2022-08-17T15:34:00.855Z,34.90
2022-08-17T15:36:28.811Z,34.70
2022-08-17T15:38:59.191Z,34.50
2022-08-17T15:41:28.479Z,34.20
2022-08-17T15:43:56.733Z,33.70
2022-08-17T15:46:26.160Z,33.40
2022-08-17T15:48:56.767Z,33.00
2022-08-17T15:51:27.322Z,32.70
2022-08-17T15:53:59.639Z,32.40
2022-08-17T15:56:32.990Z,32.10
2022-08-17T15:59:01.401Z,31.90
2022-08-17T16:02:15.416Z,31.70
2022-08-17T16:04:30.184Z,31.50
2022-08-17T16:06:59.503Z,31.40
2022-08-17T16:09:28.986Z,31.30
2022-08-17T16:11:57.012Z,31.10
2022-08-17T16:14:32.391Z,31.00
2022-08-17T16:17:03.871Z,31.00
2022-08-17T16:19:33.405Z,31.00
2022-08-17T16:22:01.505Z,30.90
2022-08-17T16:24:32.162Z,30.80
2022-08-17T16:27:00.470Z,30.80
2022-08-17T16:29:28.883Z,30.80
2022-08-17T16:31:57.769Z,30.80
2022-08-17T16:34:25.752Z,30.90
2022-08-17T16:36:56.498Z,30.90
2022-08-17T16:39:27.560Z,30.90
2022-08-17T16:41:57.751Z,31.00
2022-08-17T16:44:31.932Z,30.90
2022-08-17T16:47:01.574Z,30.80
2022-08-17T16:49:37.308Z,30.70
2022-08-17T16:52:10.566Z,30.60
2022-08-17T16:54:44.104Z,30.60
2022-08-17T16:57:14.863Z,30.60
2022-08-17T16:59:47.769Z,30.60
2022-08-17T17:02:17.405Z,30.60
2022-08-17T17:04:51.168Z,30.90
2022-08-17T17:07:51.195Z,31.50
2022-08-17T17:10:22.872Z,31.10
2022-08-17T17:13:03.165Z,31.00
2022-08-17T17:15:59.008Z,31.30
2022-08-17T17:18:38.523Z,31.40
2022-08-17T17:21:10.190Z,31.30
2022-08-17T17:23:48.552Z,31.50
2022-08-17T17:26:39.555Z,31.80
2022-08-17T17:29:24.988Z,31.30
2022-08-17T17:32:03.232Z,30.80
2022-08-17T17:34:37.249Z,30.60
2022-08-17T17:37:12.891Z,30.30
2022-08-17T17:39:47.886Z,29.80
2022-08-17T17:42:20.466Z,29.70
2022-08-17T17:44:56.801Z,29.60
2022-08-17T17:47:24.653Z,29.50
2022-08-17T17:49:52.605Z,29.40
2022-08-17T17:52:29.278Z,29.40
2022-08-17T17:55:06.561Z,29.30
2022-08-17T17:57:56.045Z,29.30
2022-08-17T18:00:29.893Z,29.30
2022-08-17T18:03:11.406Z,29.10
2022-08-17T18:05:52.200Z,29.10
2022-08-17T18:08:34.988Z,29.10
2022-08-17T18:11:24.258Z,29.00
2022-08-17T18:14:05.412Z,28.80
2022-08-17T18:16:37.922Z,28.70
2022-08-17T18:19:06.829Z,28.60
2022-08-17T18:21:44.710Z,28.70
2022-08-17T18:24:14.293Z,28.90
2022-08-17T18:26:57.481Z,29.10
2022-08-17T18:29:32.052Z,29.00
2022-08-17T18:32:27.473Z,28.90
2022-08-17T18:34:57.775Z,28.90
2022-08-17T18:37:38.715Z,28.80
2022-08-17T18:40:28.898Z,28.90
2022-08-17T18:43:05.235Z,28.90
2022-08-17T18:45:38.382Z,29.00
2022-08-17T18:48:28.611Z,29.00
2022-08-17T18:50:59.867Z,29.00
2022-08-17T18:53:34.819Z,29.10
2022-08-17T18:56:29.918Z,29.00
2022-08-17T18:59:06.068Z,29.00
2022-08-17T19:01:47.589Z,29.00
2022-08-17T19:04:34.615Z,29.00
2022-08-17T19:07:06.775Z,28.90
2022-08-17T19:09:38.689Z,28.80
2022-08-17T19:12:10.559Z,28.80
2022-08-17T19:14:38.945Z,28.80
2022-08-17T19:17:12.185Z,28.80
2022-08-17T19:19:49.728Z,28.80
2022-08-17T19:22:28.707Z,28.80
2022-08-17T19:25:08.789Z,28.80
2022-08-17T19:27:57.363Z,28.80
2022-08-17T19:30:26.310Z,28.90
2022-08-17T19:32:58.551Z,28.70
2022-08-17T19:35:36.247Z,28.70
2022-08-17T19:38:13.210Z,28.70
2022-08-17T19:40:53.619Z,28.80
2022-08-17T19:43:30.976Z,28.80
2022-08-17T19:46:06.226Z,28.80
2022-08-17T19:48:45.712Z,28.80
2022-08-17T19:51:24.683Z,28.60
2022-08-17T19:54:07.086Z,28.60
2022-08-17T19:56:44.969Z,28.40
2022-08-17T19:59:18.566Z,28.50
2022-08-17T20:01:50.553Z,28.60
2022-08-17T20:04:36.044Z,28.70
2022-08-17T20:07:10.045Z,28.70
2022-08-17T20:09:40.398Z,28.80
2022-08-17T20:12:11.731Z,28.80
2022-08-17T20:14:53.398Z,28.80
2022-08-17T20:17:25.435Z,28.70
2022-08-17T20:20:04.823Z,28.80
2022-08-17T20:22:51.996Z,28.70
2022-08-17T20:25:30.088Z,28.60
2022-08-17T20:28:06.383Z,28.60
2022-08-17T20:30:38.640Z,28.50
2022-08-17T20:33:08.724Z,28.60
2022-08-17T20:36:00.127Z,28.70
2022-08-17T20:38:41.259Z,28.80
2022-08-17T20:41:14.721Z,28.70
2022-08-17T20:43:49.268Z,28.70
2022-08-17T20:46:28.842Z,28.70
2022-08-17T20:49:14.657Z,28.60
2022-08-17T20:52:01.509Z,28.60
2022-08-17T20:54:44.566Z,28.60
2022-08-17T20:57:43.585Z,28.60
2022-08-17T21:00:16.718Z,28.40
2022-08-17T21:02:47.068Z,28.40
2022-08-17T21:05:34.248Z,28.30
2022-08-17T21:08:14.207Z,28.20
2022-08-17T21:10:45.695Z,28.10
2022-08-17T21:13:38.207Z,28.00
2022-08-17T21:16:25.975Z,27.90
2022-08-17T21:19:04.298Z,28.00
2022-08-17T21:21:40.427Z,27.90
2022-08-17T21:24:20.407Z,27.90
2022-08-17T21:27:01.035Z,27.90
2022-08-17T21:29:36.339Z,27.90
2022-08-17T21:32:24.550Z,28.00
2022-08-17T21:35:23.327Z,28.00
2022-08-17T21:37:55.677Z,28.00
2022-08-17T21:40:29.236Z,28.00
2022-08-17T21:43:08.137Z,28.00
2022-08-17T21:45:38.216Z,27.90
2022-08-17T21:48:19.856Z,27.80
2022-08-17T21:50:58.667Z,27.80
2022-08-17T21:53:34.306Z,27.80
2022-08-17T21:56:02.446Z,27.80
2022-08-17T21:58:34.727Z,27.80
2022-08-17T22:01:22.987Z,27.80
2022-08-17T22:04:02.377Z,27.80
2022-08-17T22:06:35.938Z,27.80
2022-08-17T22:09:12.669Z,27.80
2022-08-17T22:11:53.246Z,27.70
2022-08-17T22:14:24.568Z,27.60
2022-08-17T22:17:16.296Z,27.60
2022-08-17T22:19:47.258Z,27.70
2022-08-17T22:22:28.608Z,27.70
2022-08-17T22:24:59.399Z,27.70
2022-08-17T22:27:49.863Z,27.60
2022-08-17T22:30:28.080Z,27.60
2022-08-17T22:32:56.658Z,27.60
2022-08-17T22:35:37.139Z,27.60
2022-08-17T22:38:31.275Z,27.60
2022-08-17T22:41:41.404Z,27.60
2022-08-17T22:44:17.830Z,27.60
2022-08-17T22:46:59.262Z,27.50
2022-08-17T22:49:30.018Z,27.40
2022-08-17T22:52:04.748Z,27.30
2022-08-17T22:54:51.558Z,27.20
2022-08-17T22:57:43.562Z,27.20
2022-08-17T23:00:32.177Z,27.10
2022-08-17T23:03:15.008Z,27.10
2022-08-17T23:05:45.271Z,27.20
2022-08-17T23:08:14.178Z,27.30
2022-08-17T23:10:42.978Z,27.30
2022-08-17T23:13:12.210Z,27.30
2022-08-17T23:15:41.023Z,27.30
2022-08-17T23:18:10.649Z,27.20
2022-08-17T23:20:40.732Z,27.20
2022-08-17T23:23:10.404Z,27.20
2022-08-17T23:25:38.524Z,27.10
2022-08-17T23:28:07.382Z,27.20
2022-08-17T23:30:40.064Z,27.20
2022-08-17T23:33:16.834Z,27.20
2022-08-17T23:35:44.832Z,27.10
2022-08-17T23:38:14.044Z,27.10
2022-08-17T23:40:42.213Z,27.20
2022-08-17T23:43:23.798Z,27.20
2022-08-17T23:45:54.351Z,27.10
2022-08-17T23:48:28.619Z,27.00
2022-08-17T23:51:09.311Z,26.90
2022-08-17T23:53:42.121Z,26.80
2022-08-17T23:56:11.616Z,26.80
2022-08-17T23:58:42.511Z,26.70
